Time;durP1;ratioP1;P1;durP2;ratioP2;P2;SDS_P1;SDS_P2;PMS_P1;PMS_P2;Temp;Humidity;BMP_temperature;BMP_pressure;BME280_temperature;BME280_humidity;BME280_pressure;Samples;Min_cycle;Max_cycle;Signal;HPM_P1;HPM_P2
2021/08/18 00:01:49;;;;;;;12.68;10.05;;;;;;;15.02;85.55;100449.94;2616071;31;20042;-46
2021/08/18 00:04:17;;;;;;;13.82;9.05;;;;;;;15.09;85.27;100448.22;2615077;36;20061;-48
2021/08/18 00:06:44;;;;;;;11.65;8.48;;;;;;;15.09;84.96;100447.38;2615600;36;20038;-45
2021/08/18 00:09:13;;;;;;;11.50;8.20;;;;;;;14.98;85.68;100449.91;2615674;31;20578;-46
2021/08/18 00:11:40;;;;;;;12.65;8.93;;;;;;;15.08;85.85;100443.06;2615631;31;20030;-48
2021/08/18 00:14:07;;;;;;;13.02;9.13;;;;;;;15.00;86.08;100445.63;2615417;31;20038;-48
2021/08/18 00:16:34;;;;;;;11.70;8.43;;;;;;;15.00;85.90;100448.19;2615457;31;20037;-48
2021/08/18 00:19:01;;;;;;;12.75;8.68;;;;;;;14.99;85.60;100449.91;2614767;36;20582;-45
2021/08/18 00:21:28;;;;;;;10.27;7.88;;;;;;;15.20;84.76;100443.09;2615347;36;20031;-46
2021/08/18 00:23:56;;;;;;;13.40;9.65;;;;;;;14.97;85.42;100450.75;2614869;36;20038;-47
2021/08/18 00:26:26;;;;;;;11.98;8.90;;;;;;;14.97;85.25;100449.03;2615161;31;20043;-45
2021/08/18 00:28:54;;;;;;;11.73;7.95;;;;;;;14.90;85.63;100452.44;2615352;31;20038;-48
2021/08/18 00:31:23;;;;;;;11.93;8.25;;;;;;;15.07;84.92;100455.09;2614571;36;20042;-52
2021/08/18 00:33:50;;;;;;;9.50;7.82;;;;;;;15.06;85.26;100458.53;2614882;31;20030;-48
2021/08/18 00:36:18;;;;;;;9.60;7.93;;;;;;;15.12;84.29;100458.56;2615340;31;20065;-45
2021/08/18 00:38:45;;;;;;;11.90;7.85;;;;;;;15.16;84.41;100452.56;2617822;31;20030;-48
2021/08/18 00:41:12;;;;;;;11.77;7.95;;;;;;;15.08;84.64;100453.38;2614392;36;20038;-47
2021/08/18 00:43:39;;;;;;;12.13;8.82;;;;;;;15.03;84.26;100453.38;2614677;36;20561;-46
2021/08/18 00:46:07;;;;;;;13.20;9.00;;;;;;;15.07;84.97;100444.78;2615375;31;20038;-46
2021/08/18 00:48:35;;;;;;;10.98;8.75;;;;;;;14.96;84.94;100449.88;2617722;36;20057;-47
2021/08/18 00:51:02;;;;;;;9.77;8.52;;;;;;;14.94;86.77;100451.63;2615490;31;20057;-46
2021/08/18 00:53:29;;;;;;;13.75;9.38;;;;;;;14.74;87.08;100448.06;2615195;31;20053;-45
2021/08/18 00:55:57;;;;;;;12.00;9.48;;;;;;;14.72;87.66;100450.66;2614500;36;20057;-47
2021/08/18 00:58:24;;;;;;;12.18;9.30;;;;;;;14.70;88.28;100449.78;2615081;31;20065;-46
2021/08/18 01:00:51;;;;;;;12.00;9.57;;;;;;;14.60;89.25;100454.88;2614657;36;20042;-46
2021/08/18 01:03:18;;;;;;;11.82;9.38;;;;;;;14.51;90.13;100463.41;2616582;31;20034;-48
2021/08/18 01:05:46;;;;;;;12.10;9.75;;;;;;;14.53;90.27;100464.28;2616368;31;20038;-45
2021/08/18 01:08:13;;;;;;;11.55;9.55;;;;;;;14.60;89.73;100467.75;2615221;31;20058;-48
2021/08/18 01:10:40;;;;;;;11.00;9.90;;;;;;;14.58;89.54;100462.59;2615841;31;20070;-45
2021/08/18 01:13:07;;;;;;;11.77;9.55;;;;;;;14.51;89.67;100465.97;2617142;31;20446;-46
2021/08/18 01:15:35;;;;;;;12.88;9.43;;;;;;;14.57;89.40;100460.03;2615326;31;20034;-49
2021/08/18 01:18:05;;;;;;;10.68;9.55;;;;;;;14.54;89.50;100457.44;2615419;31;20030;-48
2021/08/18 01:20:36;;;;;;;11.45;9.23;;;;;;;14.62;89.23;100461.78;2615360;31;20027;-46
2021/08/18 01:23:06;;;;;;;12.57;10.10;;;;;;;14.45;89.93;100453.91;2615830;31;20400;-51
2021/08/18 01:25:38;;;;;;;11.98;9.57;;;;;;;14.46;90.40;100450.47;2579056;31;2004772;-48
2021/08/18 01:28:07;;;;;;;12.48;10.23;;;;;;;14.44;90.56;100457.34;2614579;36;20065;-48
2021/08/18 01:30:36;;;;;;;12.50;10.27;;;;;;;14.44;90.76;100453.91;2614829;31;20034;-45
2021/08/18 01:33:06;;;;;;;13.65;10.27;;;;;;;14.37;90.82;100454.69;2614887;36;20082;-47
2021/08/18 01:35:36;;;;;;;10.82;9.50;;;;;;;14.33;90.67;100450.38;2578843;31;2004643;-50
2021/08/18 01:38:06;;;;;;;10.93;9.75;;;;;;;14.37;90.74;100449.53;2615600;36;20057;-47
2021/08/18 01:40:33;;;;;;;11.73;9.27;;;;;;;14.38;90.34;100446.16;2615974;31;20053;-46
2021/08/18 01:43:00;;;;;;;11.63;9.32;;;;;;;14.44;89.48;100461.63;2615103;36;20027;-45
2021/08/18 01:45:35;;;;;;;10.32;8.88;;;;;;;14.38;88.68;100449.59;2616412;31;20594;-48
2021/08/18 01:48:10;;;;;;;11.18;9.18;;;;;;;14.50;88.06;100457.41;2615874;31;20057;-51
2021/08/18 01:50:47;;;;;;;10.23;7.65;;;;;;;14.39;87.38;100445.28;2579141;31;2004606;-50
2021/08/18 01:53:39;;;;;;;10.43;9.13;;;;;;;14.35;87.74;100443.53;2614632;36;20034;-49
2021/08/18 01:56:09;;;;;;;10.57;7.93;;;;;;;14.34;87.51;100441.81;2578797;31;2004538;-48
2021/08/18 01:58:37;;;;;;;8.18;7.35;;;;;;;14.41;87.24;100447.00;2614500;36;20045;-45
2021/08/18 02:01:07;;;;;;;9.43;8.10;;;;;;;14.40;86.61;100442.72;2614536;31;20034;-51
2021/08/18 02:03:35;;;;;;;10.63;8.00;;;;;;;14.41;86.53;100439.28;2614948;31;20564;-48
2021/08/18 02:06:02;;;;;;;9.55;7.03;;;;;;;14.36;86.41;100440.97;2614850;36;20455;-48
2021/08/18 02:08:30;;;;;;;9.73;7.30;;;;;;;14.51;86.34;100432.50;2615363;31;20061;-49
2021/08/18 02:10:57;;;;;;;8.98;7.22;;;;;;;14.41;86.65;100438.41;2614721;36;20553;-46
2021/08/18 02:13:25;;;;;;;9.93;7.65;;;;;;;14.32;86.63;100428.91;2614225;36;20030;-47
2021/08/18 02:15:52;;;;;;;11.30;6.93;;;;;;;14.35;86.39;100430.66;2615935;31;20030;-45
2021/08/18 02:18:19;;;;;;;11.10;7.30;;;;;;;14.40;86.65;100434.13;2615777;31;20061;-47
2021/08/18 02:20:47;;;;;;;9.13;7.28;;;;;;;14.40;86.29;100429.81;2615055;31;20049;-45
2021/08/18 02:23:15;;;;;;;8.48;6.40;;;;;;;14.47;85.18;100431.59;2614705;36;20583;-46
2021/08/18 02:25:42;;;;;;;8.00;7.20;;;;;;;14.36;85.56;100422.06;2616267;31;20038;-48
2021/08/18 02:28:10;;;;;;;9.65;7.05;;;;;;;14.44;85.68;100418.69;2615773;36;20046;-47
2021/08/18 02:30:37;;;;;;;7.95;6.63;;;;;;;14.31;86.12;100424.63;2615979;31;20470;-44
2021/08/18 02:33:05;;;;;;;7.18;6.47;;;;;;;14.40;85.88;100424.69;2615304;36;20574;-44
2021/08/18 02:35:33;;;;;;;8.23;6.90;;;;;;;14.21;86.82;100428.00;2615394;31;20030;-48
2021/08/18 02:38:01;;;;;;;8.15;6.88;;;;;;;14.21;86.67;100422.84;2615197;31;20038;-45
2021/08/18 02:40:29;;;;;;;10.15;7.05;;;;;;;14.19;86.98;100425.44;2615374;31;20034;-44
2021/08/18 02:42:58;;;;;;;10.43;6.78;;;;;;;14.24;87.30;100433.19;2615742;31;20038;-44
2021/08/18 02:45:27;;;;;;;7.80;6.45;;;;;;;14.14;87.33;100433.94;2617803;31;20116;-46
2021/08/18 02:47:54;;;;;;;8.95;6.35;;;;;;;14.26;86.84;100434.03;2615474;36;20038;-46
2021/08/18 02:50:24;;;;;;;7.35;6.07;;;;;;;14.29;87.16;100428.06;2615104;31;20082;-45
2021/08/18 02:52:51;;;;;;;9.88;6.90;;;;;;;14.16;87.70;100435.69;2614863;36;20054;-46
2021/08/18 02:55:19;;;;;;;6.82;5.95;;;;;;;14.06;88.11;100431.34;2615136;31;20027;-45
2021/08/18 02:57:46;;;;;;;10.52;7.10;;;;;;;14.20;87.42;100428.84;2614580;36;20590;-45
2021/08/18 03:00:14;;;;;;;8.05;6.60;;;;;;;14.10;87.37;100425.34;2615426;31;20608;-44
2021/08/18 03:02:42;;;;;;;6.82;6.13;;;;;;;14.09;87.72;100418.47;2615101;36;20034;-45
2021/08/18 03:05:10;;;;;;;10.18;5.90;;;;;;;14.10;87.92;100425.34;2614646;31;20122;-49
2021/08/18 03:07:37;;;;;;;7.38;6.25;;;;;;;14.20;86.95;100431.44;2614815;36;20065;-44
2021/08/18 03:10:05;;;;;;;8.23;6.25;;;;;;;14.04;87.64;100425.28;2615045;36;20039;-45
2021/08/18 03:12:32;;;;;;;9.50;6.72;;;;;;;14.14;87.25;100421.97;2614242;36;20026;-47
2021/08/18 03:14:59;;;;;;;9.25;6.82;;;;;;;14.18;87.70;100422.81;2615005;36;20060;-46
2021/08/18 03:17:27;;;;;;;9.13;6.22;;;;;;;14.16;87.36;100424.53;2614068;31;20061;-48
2021/08/18 03:19:54;;;;;;;7.90;7.07;;;;;;;14.25;87.21;100414.28;2613178;36;20061;-45
2021/08/18 03:22:21;;;;;;;7.82;7.03;;;;;;;14.07;88.54;100412.44;2614842;31;20030;-45
2021/08/18 03:24:48;;;;;;;8.43;6.85;;;;;;;14.11;88.16;100413.34;2614624;36;20030;-44
2021/08/18 03:27:16;;;;;;;7.88;6.72;;;;;;;14.10;88.80;100421.94;2614236;31;20038;-46
2021/08/18 03:29:43;;;;;;;8.10;6.35;;;;;;;14.10;88.44;100414.19;2614697;36;20609;-47
2021/08/18 03:32:11;;;;;;;7.38;6.50;;;;;;;14.13;88.42;100421.94;2614424;36;20046;-44
2021/08/18 03:34:38;;;;;;;8.38;6.63;;;;;;;14.19;87.72;100421.97;2613855;36;20664;-48
2021/08/18 03:37:05;;;;;;;7.53;6.63;;;;;;;14.10;88.28;100437.38;2614984;31;20578;-46
2021/08/18 03:39:33;;;;;;;9.65;6.40;;;;;;;13.96;88.79;100437.28;2615202;31;20045;-46
2021/08/18 03:42:00;;;;;;;9.40;6.40;;;;;;;13.82;88.96;100429.44;2614831;31;20030;-44
2021/08/18 03:44:27;;;;;;;9.10;7.03;;;;;;;13.79;88.28;100429.41;2615063;31;20891;-48
2021/08/18 03:46:54;;;;;;;7.88;6.43;;;;;;;13.73;88.93;100432.78;2612781;36;20038;-48
2021/08/18 03:49:22;;;;;;;7.10;6.35;;;;;;;13.68;88.66;100426.75;2614271;31;20478;-50
2021/08/18 03:51:51;;;;;;;7.75;5.80;;;;;;;13.62;88.12;100429.25;2614132;31;20065;-50
2021/08/18 03:54:18;;;;;;;9.13;7.05;;;;;;;13.49;88.77;100435.97;2614120;36;20034;-47
2021/08/18 03:56:45;;;;;;;7.43;6.10;;;;;;;13.57;88.45;100437.78;2614702;31;20463;-47
2021/08/18 03:59:12;;;;;;;8.27;6.32;;;;;;;13.54;88.10;100432.59;2614114;31;20053;-45
2021/08/18 04:01:39;;;;;;;7.80;6.30;;;;;;;13.43;88.47;100435.94;2613807;36;20031;-46
2021/08/18 04:04:07;;;;;;;9.10;6.53;;;;;;;13.34;88.75;100438.41;2614080;31;20057;-46
2021/08/18 04:06:34;;;;;;;9.18;6.68;;;;;;;13.53;88.42;100436.88;2614209;36;20042;-46
2021/08/18 04:09:02;;;;;;;9.60;6.50;;;;;;;13.40;88.51;100441.06;2614217;31;20590;-45
2021/08/18 04:11:29;;;;;;;8.13;6.30;;;;;;;13.45;88.11;100443.66;2613967;36;20030;-45
2021/08/18 04:13:56;;;;;;;8.88;6.70;;;;;;;13.33;87.94;100440.97;2615241;31;20039;-44
2021/08/18 04:16:23;;;;;;;9.65;6.55;;;;;;;13.28;88.51;100447.78;2614699;31;20466;-45
2021/08/18 04:18:51;;;;;;;11.82;6.90;;;;;;;13.37;88.96;100455.59;2613382;36;20041;-45
2021/08/18 04:21:18;;;;;;;8.45;6.22;;;;;;;13.17;88.49;100452.75;2613909;36;20389;-44
2021/08/18 04:23:45;;;;;;;9.77;7.15;;;;;;;13.07;89.90;100450.94;2614688;31;20077;-47
2021/08/18 04:26:13;;;;;;;11.27;6.53;;;;;;;13.10;89.35;100459.53;2613696;36;20038;-44
2021/08/18 04:28:40;;;;;;;10.00;6.63;;;;;;;13.21;89.82;100464.81;2613931;36;20161;-45
2021/08/18 04:31:07;;;;;;;10.40;6.22;;;;;;;13.18;89.92;100457.94;2614614;31;20034;-45
2021/08/18 04:33:34;;;;;;;13.25;7.30;;;;;;;13.13;89.83;100464.72;2614319;36;20035;-47
2021/08/18 04:36:01;;;;;;;8.18;5.82;;;;;;;13.20;88.74;100466.50;2614273;36;20030;-45
2021/08/18 04:38:28;;;;;;;8.93;5.72;;;;;;;13.15;89.65;100463.03;2617229;31;20077;-48
2021/08/18 04:40:56;;;;;;;9.77;6.72;;;;;;;13.23;89.88;100474.31;2613994;36;20065;-46
2021/08/18 04:43:23;;;;;;;9.85;6.22;;;;;;;13.19;89.06;100475.06;2613880;36;20033;-45
2021/08/18 04:45:52;;;;;;;11.40;6.95;;;;;;;13.07;90.15;100468.91;2614536;31;20034;-45
2021/08/18 04:48:20;;;;;;;12.60;6.68;;;;;;;12.92;90.60;100472.19;2615114;31;20039;-45
2021/08/18 04:50:47;;;;;;;11.00;7.13;;;;;;;12.96;90.28;100467.09;2615510;31;20057;-51
2021/08/18 04:53:14;;;;;;;13.73;7.60;;;;;;;12.85;91.12;100478.97;2614606;36;20034;-45
2021/08/18 04:55:41;;;;;;;13.35;7.20;;;;;;;13.05;90.47;100471.50;2615587;31;20038;-46
2021/08/18 04:58:09;;;;;;;9.65;6.85;;;;;;;13.02;90.50;100483.44;2614927;36;20043;-48
2021/08/18 05:00:36;;;;;;;10.50;7.57;;;;;;;12.91;91.65;100473.03;2615462;36;20449;-48
2021/08/18 05:03:04;;;;;;;12.48;6.65;;;;;;;13.01;90.59;100474.84;2614854;36;20039;-46
2021/08/18 05:05:31;;;;;;;11.63;6.65;;;;;;;13.00;90.49;100475.72;2615369;36;20030;-44
2021/08/18 05:07:59;;;;;;;10.27;6.80;;;;;;;12.95;90.96;100473.09;2614681;36;20057;-44
2021/08/18 05:10:26;;;;;;;12.32;7.75;;;;;;;12.73;92.29;100484.78;2615577;36;20589;-44
2021/08/18 05:12:53;;;;;;;9.75;6.55;;;;;;;12.85;92.03;100494.38;2617029;36;20034;-46
2021/08/18 05:15:22;;;;;;;10.73;7.20;;;;;;;12.92;91.55;100495.31;2618023;31;20035;-47
2021/08/18 05:17:50;;;;;;;11.27;7.50;;;;;;;13.08;91.19;100492.09;2616866;31;20045;-44
2021/08/18 05:20:17;;;;;;;11.45;6.95;;;;;;;13.15;90.21;100493.03;2614822;32;20057;-46
2021/08/18 05:22:45;;;;;;;10.55;7.38;;;;;;;13.16;90.77;100499.88;2615220;36;20567;-44
2021/08/18 05:25:14;;;;;;;10.88;7.07;;;;;;;12.98;91.62;100498.81;2616013;31;20673;-44
2021/08/18 05:27:42;;;;;;;10.40;7.03;;;;;;;13.15;90.87;100498.16;2616103;31;20031;-46
2021/08/18 05:30:11;;;;;;;10.60;6.90;;;;;;;13.00;91.59;100503.97;2614800;31;20030;-48
2021/08/18 05:32:39;;;;;;;10.85;7.30;;;;;;;13.00;91.79;100501.41;2614474;36;20031;-45
2021/08/18 05:35:09;;;;;;;15.43;7.90;;;;;;;12.86;92.40;100506.38;2614918;31;20061;-50
2021/08/18 05:37:37;;;;;;;12.38;8.13;;;;;;;12.99;92.12;100500.56;2614881;31;20030;-45
2021/08/18 05:40:05;;;;;;;11.65;7.53;;;;;;;13.25;90.89;100506.03;2615138;31;20057;-47
2021/08/18 05:42:35;;;;;;;10.93;7.03;;;;;;;13.37;90.21;100501.88;2615019;31;20072;-45
2021/08/18 05:45:04;;;;;;;13.15;7.45;;;;;;;13.40;90.40;100499.31;2614499;31;20030;-50
2021/08/18 05:47:32;;;;;;;11.93;7.25;;;;;;;13.37;90.51;100497.59;2615284;31;20030;-44
2021/08/18 05:49:59;;;;;;;10.00;6.65;;;;;;;13.53;90.12;100492.63;2616508;31;20069;-45
2021/08/18 05:52:26;;;;;;;11.63;7.65;;;;;;;13.44;90.16;100493.38;2615608;31;20022;-44
2021/08/18 05:54:53;;;;;;;9.82;6.88;;;;;;;13.42;90.29;100501.09;2615853;31;20034;-47
2021/08/18 05:57:20;;;;;;;10.88;6.97;;;;;;;13.39;90.90;100495.03;2614913;31;20045;-44
2021/08/18 05:59:47;;;;;;;11.98;6.95;;;;;;;13.34;90.86;100499.28;2615608;36;20038;-44
2021/08/18 06:02:14;;;;;;;10.50;7.32;;;;;;;13.33;91.26;100482.13;2614867;31;20038;-45
2021/08/18 06:04:41;;;;;;;12.77;7.15;;;;;;;13.53;91.14;100495.19;2616017;31;20031;-47
2021/08/18 06:07:08;;;;;;;11.77;7.10;;;;;;;13.63;91.03;100484.13;2614502;36;20042;-45
2021/08/18 06:09:37;;;;;;;10.45;7.38;;;;;;;13.67;90.33;100491.03;2615809;31;20022;-45
2021/08/18 06:12:05;;;;;;;12.68;7.18;;;;;;;13.44;90.85;100499.38;2614914;36;20031;-48
2021/08/18 06:14:33;;;;;;;10.45;7.47;;;;;;;13.54;90.79;100496.91;2617394;31;20030;-49
2021/08/18 06:17:00;;;;;;;10.57;7.18;;;;;;;13.85;89.04;100500.66;2615574;36;20065;-45
2021/08/18 06:19:27;;;;;;;11.50;7.60;;;;;;;13.98;89.32;100494.78;2614853;31;20038;-46
2021/08/18 06:21:55;;;;;;;13.20;6.80;;;;;;;13.94;88.69;100488.72;2615822;31;20081;-46
2021/08/18 06:26:49;;;;;;;9.10;6.50;;;;;;;14.01;88.78;100490.50;2615802;31;20038;-46
2021/08/18 06:29:17;;;;;;;9.35;6.78;;;;;;;14.10;88.72;100488.88;2614857;36;20034;-46
2021/08/18 06:31:44;;;;;;;9.88;6.47;;;;;;;14.10;88.93;100491.44;2614848;36;20452;-48
2021/08/18 06:34:11;;;;;;;8.55;6.50;;;;;;;14.15;88.06;100485.47;2615198;31;20030;-45
2021/08/18 06:36:38;;;;;;;9.90;6.90;;;;;;;13.97;89.01;100486.19;2614434;36;20066;-45
2021/08/18 06:39:05;;;;;;;9.02;6.57;;;;;;;14.08;88.37;100488.84;2614680;36;20030;-45
2021/08/18 06:41:32;;;;;;;10.93;6.65;;;;;;;14.23;88.22;100490.66;2615563;31;20034;-48
2021/08/18 06:43:59;;;;;;;13.02;6.78;;;;;;;14.30;87.40;100496.75;2614914;31;20031;-47
2021/08/18 06:46:26;;;;;;;8.68;6.68;;;;;;;14.51;87.47;100490.06;2615113;31;20575;-48
2021/08/18 06:48:54;;;;;;;9.85;6.55;;;;;;;14.48;86.75;100502.91;2617412;31;20586;-46
2021/08/18 06:51:21;;;;;;;9.98;6.75;;;;;;;14.62;86.74;100502.16;2614698;31;20038;-46
2021/08/18 06:53:48;;;;;;;9.38;6.72;;;;;;;14.92;85.59;100506.59;2614878;31;20034;-44
2021/08/18 06:56:15;;;;;;;10.70;7.10;;;;;;;14.96;84.79;100493.72;2615454;31;20038;-48
2021/08/18 06:58:42;;;;;;;10.23;6.95;;;;;;;15.01;85.20;100491.16;2615553;31;20026;-48
2021/08/18 07:01:09;;;;;;;9.68;6.85;;;;;;;15.59;82.70;100491.38;2614739;36;20038;-46
2021/08/18 07:03:36;;;;;;;7.43;6.15;;;;;;;15.87;79.97;100491.44;2615122;36;20468;-44
2021/08/18 07:06:04;;;;;;;7.40;5.57;;;;;;;16.44;78.54;100494.84;2614881;36;20064;-48
2021/08/18 07:08:31;;;;;;;8.25;4.95;;;;;;;17.43;74.46;100502.31;2615015;36;20446;-45
2021/08/18 07:10:58;;;;;;;9.00;4.95;;;;;;;18.48;69.39;100503.25;2614957;31;20645;-44
2021/08/18 07:13:25;;;;;;;7.05;5.20;;;;;;;18.15;69.73;100495.78;2614615;36;20030;-51
2021/08/18 07:15:52;;;;;;;7.22;5.32;;;;;;;17.50;71.77;100497.94;2614780;31;20049;-44
2021/08/18 07:18:22;;;;;;;8.40;4.90;;;;;;;16.94;74.73;100488.72;2614222;36;20049;-44
2021/08/18 07:20:50;;;;;;;7.45;4.95;;;;;;;16.92;75.32;100488.75;2615031;36;20484;-46
2021/08/18 07:23:17;;;;;;;8.77;4.80;;;;;;;16.75;77.03;100487.94;2614408;36;20061;-44
2021/08/18 07:25:44;;;;;;;5.53;4.25;;;;;;;16.47;77.45;100489.69;2614680;36;20057;-48
2021/08/18 07:28:11;;;;;;;5.85;4.25;;;;;;;16.57;77.75;100481.03;2613850;36;20052;-48
2021/08/18 07:30:38;;;;;;;5.20;4.03;;;;;;;16.64;77.04;100479.28;2614096;36;20057;-49
2021/08/18 07:33:06;;;;;;;5.75;4.15;;;;;;;16.47;77.01;100476.75;2615001;31;20038;-46
2021/08/18 07:35:33;;;;;;;7.57;3.78;;;;;;;16.80;76.67;100470.66;2614020;36;20061;-51
2021/08/18 07:38:00;;;;;;;7.35;3.83;;;;;;;16.97;76.06;100471.47;2613538;36;20042;-46
2021/08/18 07:40:27;;;;;;;6.10;3.55;;;;;;;16.85;74.69;100475.81;2614017;36;20065;-47
2021/08/18 07:42:56;;;;;;;5.43;3.20;;;;;;;16.93;75.09;100476.66;2613691;31;20030;-50
2021/08/18 07:45:23;;;;;;;4.97;3.25;;;;;;;17.22;74.20;100474.78;2613986;36;20053;-46
2021/08/18 07:47:50;;;;;;;4.90;3.80;;;;;;;17.12;73.82;100480.03;2614131;31;20034;-49
2021/08/18 07:50:17;;;;;;;4.75;3.50;;;;;;;17.37;73.53;100475.59;2613796;31;20045;-47
2021/08/18 07:52:45;;;;;;;4.32;3.20;;;;;;;17.56;72.12;100484.94;2613992;36;20570;-47
2021/08/18 07:55:12;;;;;;;4.90;3.88;;;;;;;17.87;70.78;100483.06;2614887;36;20034;-44
2021/08/18 07:57:39;;;;;;;4.70;2.97;;;;;;;17.84;71.43;100489.97;2615138;36;20065;-46
2021/08/18 08:00:07;;;;;;;5.20;2.85;;;;;;;17.59;70.12;100479.78;2614480;36;20579;-44
2021/08/18 08:02:34;;;;;;;6.25;3.00;;;;;;;17.73;68.63;100482.25;2614048;31;20051;-47
2021/08/18 08:05:06;;;;;;;6.30;3.20;;;;;;;18.28;69.77;100479.25;2613507;36;20030;-46
2021/08/18 08:07:33;;;;;;;4.07;2.88;;;;;;;18.45;66.56;100484.28;2613929;36;20038;-44
2021/08/18 08:10:00;;;;;;;3.78;2.60;;;;;;;18.49;66.99;100484.25;2613970;36;20038;-48
2021/08/18 08:12:28;;;;;;;5.88;3.35;;;;;;;18.30;65.06;100480.09;2614391;31;20034;-45
2021/08/18 08:14:55;;;;;;;5.60;3.22;;;;;;;17.87;67.20;100492.56;2613947;36;20034;-44
2021/08/18 08:17:25;;;;;;;3.35;2.80;;;;;;;17.76;69.24;100493.50;2614188;31;20039;-47
2021/08/18 08:19:52;;;;;;;4.20;3.08;;;;;;;17.62;69.75;100486.66;2614303;31;20062;-45
2021/08/18 08:22:20;;;;;;;4.05;3.17;;;;;;;17.80;70.50;100491.75;2614949;36;20042;-45
2021/08/18 08:24:47;;;;;;;3.80;3.00;;;;;;;17.96;69.07;100493.34;2614722;36;20035;-48
2021/08/18 08:27:14;;;;;;;3.63;2.47;;;;;;;17.91;68.19;100494.25;2614864;36;20034;-48
2021/08/18 08:29:41;;;;;;;3.97;2.38;;;;;;;17.71;69.32;100490.06;2615803;36;20439;-46
2021/08/18 08:32:10;;;;;;;4.88;2.67;;;;;;;17.79;68.55;100485.72;2614998;31;20069;-45
2021/08/18 08:34:37;;;;;;;5.15;2.70;;;;;;;17.95;70.10;100480.41;2615792;31;20038;-45
2021/08/18 08:37:05;;;;;;;2.53;2.28;;;;;;;18.29;67.71;100481.81;2615289;36;20050;-49
2021/08/18 08:39:33;;;;;;;6.90;2.63;;;;;;;18.91;66.47;100476.03;2615019;31;20038;-48
2021/08/18 08:42:02;;;;;;;2.83;2.53;;;;;;;20.75;60.46;100476.63;2615668;31;20129;-48
2021/08/18 08:44:32;;;;;;;2.47;1.80;;;;;;;22.13;54.42;100486.66;2615542;31;20045;-47
2021/08/18 08:46:59;;;;;;;2.55;2.30;;;;;;;22.83;51.65;100488.25;2614647;36;20034;-45
2021/08/18 08:49:27;;;;;;;4.57;2.28;;;;;;;23.46;49.71;100483.81;2615955;31;20492;-52
2021/08/18 08:51:54;;;;;;;4.43;2.50;;;;;;;22.16;52.19;100483.97;2615403;31;20038;-47
2021/08/18 08:54:21;;;;;;;4.20;2.28;;;;;;;21.42;54.19;100477.88;2614682;36;20030;-45
2021/08/18 08:56:48;;;;;;;3.08;2.42;;;;;;;20.69;56.63;100476.78;2614938;36;20038;-45
2021/08/18 08:59:15;;;;;;;2.97;2.17;;;;;;;20.73;57.44;100479.28;2614985;31;20034;-50
2021/08/18 09:02:02;;;;;;;2.60;2.35;;;;;;;20.09;58.20;100472.63;2615410;31;20394;-48
2021/08/18 09:04:34;;;;;;;2.90;2.25;;;;;;;20.20;58.60;100468.09;2615482;31;20070;-48
2021/08/18 09:07:05;;;;;;;2.95;2.05;;;;;;;20.12;58.49;100469.13;2615795;31;20447;-43
2021/08/18 09:09:34;;;;;;;2.55;1.70;;;;;;;19.80;57.70;100467.91;2616234;31;20069;-45
2021/08/18 09:12:06;;;;;;;3.20;2.22;;;;;;;19.87;59.86;100477.28;2615205;31;20030;-44
2021/08/18 09:14:34;;;;;;;3.15;2.60;;;;;;;19.18;60.53;100461.84;2615428;31;20030;-43
2021/08/18 09:17:01;;;;;;;3.40;1.90;;;;;;;19.18;60.38;100467.91;2614591;31;20039;-44
2021/08/18 09:19:30;;;;;;;2.97;1.88;;;;;;;19.18;63.07;100464.44;2614625;36;20461;-47
2021/08/18 09:22:06;;;;;;;3.25;2.33;;;;;;;18.99;62.62;100472.44;2614513;36;20026;-46
2021/08/18 09:24:33;;;;;;;2.42;1.95;;;;;;;19.39;62.38;100463.28;2614902;36;20041;-46
2021/08/18 09:27:08;;;;;;;2.88;1.95;;;;;;;19.54;60.63;100474.31;2614991;36;20026;-44
2021/08/18 09:29:46;;;;;;;2.25;1.95;;;;;;;19.48;61.25;100465.75;2614956;36;20570;-44
2021/08/18 09:32:19;;;;;;;3.13;2.40;;;;;;;19.33;61.84;100465.09;2578307;36;2004421;-46
2021/08/18 09:35:02;;;;;;;2.95;2.50;;;;;;;19.49;63.14;100470.91;2617337;31;20039;-48
2021/08/18 09:37:31;;;;;;;2.47;2.10;;;;;;;19.22;62.91;100460.91;2614463;31;20045;-43
2021/08/18 09:39:59;;;;;;;3.65;2.10;;;;;;;19.05;63.07;100463.75;2615422;31;20053;-44
2021/08/18 09:42:30;;;;;;;2.50;2.00;;;;;;;18.80;64.88;100457.97;2614692;31;20038;-46
2021/08/18 09:45:11;;;;;;;1.90;1.70;;;;;;;18.61;64.92;100454.72;2614125;36;20076;-48
2021/08/18 09:47:59;;;;;;;2.30;2.03;;;;;;;18.50;66.17;100454.00;2578444;31;2004412;-43
2021/08/18 09:50:29;;;;;;;1.90;1.77;;;;;;;18.54;67.02;100455.69;2614984;31;20038;-46
2021/08/18 09:53:10;;;;;;;2.13;1.95;;;;;;;18.67;65.51;100446.84;2615008;36;20459;-43
2021/08/18 09:55:45;;;;;;;1.88;1.77;;;;;;;19.18;65.69;100443.66;2578641;36;2004440;-44
2021/08/18 09:58:46;;;;;;;1.92;1.50;;;;;;;19.34;64.45;100456.41;2615384;31;20038;-46
2021/08/18 10:01:15;;;;;;;3.53;2.00;;;;;;;19.17;63.51;100450.59;2577796;36;2004236;-44
2021/08/18 10:03:47;;;;;;;2.70;2.03;;;;;;;19.12;64.46;100441.16;2614767;31;20041;-45
2021/08/18 10:06:16;;;;;;;3.53;1.60;;;;;;;19.02;64.91;100451.66;2614669;36;20030;-44
2021/08/18 10:08:45;;;;;;;2.22;1.80;;;;;;;18.53;65.86;100441.84;2614443;36;20045;-45
2021/08/18 10:11:15;;;;;;;4.60;1.77;;;;;;;18.71;65.97;100437.34;2615722;31;20633;-47
2021/08/18 10:13:43;;;;;;;2.72;2.00;;;;;;;18.58;66.21;100441.81;2615445;31;20030;-46
2021/08/18 10:16:10;;;;;;;3.63;1.90;;;;;;;18.72;66.71;100445.13;2614326;36;20030;-51
2021/08/18 10:18:41;;;;;;;1.98;1.77;;;;;;;18.44;67.63;100447.13;2614298;36;20030;-48
2021/08/18 10:21:41;;;;;;;2.33;1.60;;;;;;;18.27;67.80;100441.25;2614484;31;20037;-47
2021/08/18 10:24:30;;;;;;;2.78;1.70;;;;;;;18.53;67.40;100436.66;2580454;31;2004414;-47
2021/08/18 10:26:58;;;;;;;2.47;1.70;;;;;;;18.58;68.21;100439.22;2614802;31;20034;-46
2021/08/18 10:29:31;;;;;;;2.67;1.55;;;;;;;18.90;66.11;100430.19;2614462;36;20030;-46
2021/08/18 10:32:06;;;;;;;2.45;2.22;;;;;;;19.33;66.62;100436.53;2614404;36;20056;-44
2021/08/18 10:34:45;;;;;;;1.88;1.75;;;;;;;21.36;58.01;100449.38;2615505;31;20773;-44
2021/08/18 10:37:13;;;;;;;2.50;1.60;;;;;;;24.88;48.94;100452.00;2578353;36;2004408;-45
2021/08/18 10:39:51;;;;;;;2.13;1.38;;;;;;;25.77;44.10;100449.41;2614928;31;20499;-45
2021/08/18 10:42:37;;;;;;;2.15;1.38;;;;;;;27.76;39.31;100456.25;2614966;36;20423;-45
2021/08/18 10:45:26;;;;;;;2.08;1.35;;;;;;;27.60;38.68;100439.50;2615661;36;20097;-46
2021/08/18 10:47:56;;;;;;;1.30;1.20;;;;;;;28.67;36.99;100455.97;2578163;36;2004246;-45
2021/08/18 10:50:23;;;;;;;2.03;1.70;;;;;;;27.25;39.07;100438.56;2613750;36;20045;-46
2021/08/18 10:52:52;;;;;;;1.63;1.52;;;;;;;27.17;40.08;100445.03;2614201;36;20458;-45
2021/08/18 10:55:23;;;;;;;1.50;1.40;;;;;;;26.61;42.13;100451.06;2614282;31;20030;-45
2021/08/18 10:58:04;;;;;;;1.77;1.67;;;;;;;26.10;41.92;100444.53;2615379;31;20672;-48
2021/08/18 11:00:40;;;;;;;2.78;1.60;;;;;;;25.87;42.16;100426.28;2614550;31;20030;-50
2021/08/18 11:03:08;;;;;;;1.92;1.70;;;;;;;24.88;45.33;100439.75;2613697;36;20034;-45
2021/08/18 11:05:39;;;;;;;1.67;1.58;;;;;;;24.66;45.10;100432.75;2614267;31;20030;-48
2021/08/18 11:08:06;;;;;;;3.95;1.55;;;;;;;23.96;47.16;100430.81;2614089;31;20538;-45
2021/08/18 11:11:03;;;;;;;3.42;1.80;;;;;;;23.16;47.84;100424.63;2614070;36;20030;-45
2021/08/18 11:13:46;;;;;;;1.70;1.60;;;;;;;24.80;45.24;100425.22;2577446;36;2004385;-46
2021/08/18 11:16:16;;;;;;;2.72;1.55;;;;;;;28.26;39.45;100430.94;2577548;36;2004647;-45
2021/08/18 11:18:57;;;;;;;2.20;1.80;;;;;;;29.33;35.71;100436.56;2613536;36;20170;-45
2021/08/18 11:21:30;;;;;;;2.00;1.45;;;;;;;31.27;31.61;100434.59;2613991;36;20594;-47
2021/08/18 11:24:03;;;;;;;1.70;1.60;;;;;;;31.35;31.26;100423.53;2614592;31;20026;-48
2021/08/18 11:26:33;;;;;;;3.50;1.92;;;;;;;28.31;34.34;100424.50;2613741;31;20096;-45
2021/08/18 11:29:09;;;;;;;2.60;1.80;;;;;;;26.21;38.83;100415.22;2613446;36;20034;-47
2021/08/18 11:31:45;;;;;;;1.45;1.35;;;;;;;25.26;40.94;100410.41;2613915;31;20069;-48
2021/08/18 11:34:32;;;;;;;2.03;1.67;;;;;;;25.24;40.28;100401.75;2577641;36;2004599;-47